Terminal Aerodrome Forecast
Issued by NWS Lake Charles, LA

Home | Current Version | Previous Version | Text Only | Print | Product List | Glossary On
Versions: 1 2 3 4 5 6 7 8 9 10 11 12 13 14 15 16 17 18
601
FTUS44 KLCH 280522
TAFARA
TAF
KARA 280522Z 2806/0106 16014KT P6SM SCT008 OVC015
      TEMPO 2806/2809 BKN008
     FM280900 16012KT 6SM BR BKN008
      TEMPO 2809/2813 3SM BR OVC004
     FM281500 18013G19KT P6SM OVC012
     FM281800 18013KT P6SM -TSRA SCT025 OVC045CB
     FM010000 17012KT P6SM OVC007=

USA.gov is the U.S. government's official web portal to all federal, state and local government web resources and services.